Fukuoka Airport
RJFF : now visible

Airfield :











YOU CAN JOIN US ON...

 
LOGIN :

Register | Disclaimer

   EN    FR    IT 

 









Legend :    VFR   Marginal VFR   IFR   Intensive IFR   Very Intensive IFR
Visi :
Ceiling :
>= 8 km
>= 3000ft
5 to 8 km
1000 to 3000 ft
1500m to 5 km
500 to 1000 ft
800 to 1500m
200 to 500 ft
< 800m
< 200 ft
Symbols :   Thunderstorms  Fog  Heavy snow  Heavy precipitations  Wind > 20 kt






- Airport Elevation : 32 ft
- IATA code : FUK


RJFF - Fukuoka

CURRENT METAR :
  • 201830Z AUTO VRB01KT 9999 NCD 02/00 Q1034 NOSIG RMK A3054

EXPIRED METARs :
  • 201800Z AUTO VRB01KT 9999 NSC 03/01 Q1033 NOSIG RMK A3053
  • 201730Z AUTO VRB01KT 9999 NCD 05/02 Q1033 NOSIG RMK A3052
  • 201700Z AUTO VRB02KT 9999 NCD 04/02 Q1034 NOSIG RMK A3053
  • 201630Z AUTO VRB01KT 9999 NCD 04/02 Q1033 NOSIG RMK A3053
  • 201600Z AUTO 08002KT 9999 NCD 05/02 Q1034 NOSIG RMK A3053

TAF TAF RJFF
Valid from the 20 at 18:00 until the 22 at 00:00 UTC


201705Z 2018/2200 14005KT 9999 FEW040
BECMG 2115/2118 15018KT
TEMPO 2121/2200 3000 SHRA BR
BECMG 2121/2200 26007KT



MET'MAP, your aeronautical weather chart ! - Copyright ORBIFLY December 2007 - Disclaimer

ORBIFLY MET'MAP TEAM :

Programming & Development : Alexandra Zaïnal
Concept & original design : Baudouin d'Aumeries
Assistance for programming : Marc-Olivier Méhu
Technical & hardware support : Manuel Goepfert

Contact : metmap@orbifly.com




SOURCES & CREDITS :

   NOAA       Earth
Advisory